sensor_id;sensor_type;location;lat;lon;timestamp;temperature;humidity
13742;DHT22;8461;52.356;10.704;2023-06-10T00:01:43;16.20;99.90
13742;DHT22;8461;52.356;10.704;2023-06-10T00:04:13;16.20;99.90
13742;DHT22;8461;52.356;10.704;2023-06-10T00:06:38;16.10;99.90
13742;DHT22;8461;52.356;10.704;2023-06-10T00:09:05;16.10;99.90
13742;DHT22;8461;52.356;10.704;2023-06-10T00:11:34;16.10;99.90
13742;DHT22;8461;52.356;10.704;2023-06-10T00:14:00;15.90;99.90
13742;DHT22;8461;52.356;10.704;2023-06-10T00:16:26;15.90;99.90
13742;DHT22;8461;52.356;10.704;2023-06-10T00:18:51;15.80;99.90
13742;DHT22;8461;52.356;10.704;2023-06-10T00:21:17;15.80;99.90
13742;DHT22;8461;52.356;10.704;2023-06-10T00:23:44;15.70;99.90
13742;DHT22;8461;52.356;10.704;2023-06-10T00:26:10;15.70;99.90
13742;DHT22;8461;52.356;10.704;2023-06-10T00:28:35;15.60;99.90
13742;DHT22;8461;52.356;10.704;2023-06-10T00:31:01;15.60;99.90
13742;DHT22;8461;52.356;10.704;2023-06-10T00:33:27;15.60;99.90
13742;DHT22;8461;52.356;10.704;2023-06-10T00:35:53;15.50;99.90
13742;DHT22;8461;52.356;10.704;2023-06-10T00:38:19;15.50;99.90
13742;DHT22;8461;52.356;10.704;2023-06-10T00:40:44;15.40;99.90
13742;DHT22;8461;52.356;10.704;2023-06-10T00:43:10;15.40;99.90
13742;DHT22;8461;52.356;10.704;2023-06-10T00:45:35;15.30;99.90
13742;DHT22;8461;52.356;10.704;2023-06-10T00:48:02;15.20;99.90
13742;DHT22;8461;52.356;10.704;2023-06-10T00:50:28;15.20;99.90
13742;DHT22;8461;52.356;10.704;2023-06-10T00:52:54;15.20;99.90
13742;DHT22;8461;52.356;10.704;2023-06-10T00:55:21;15.00;99.90
13742;DHT22;8461;52.356;10.704;2023-06-10T00:57:47;15.00;99.90
13742;DHT22;8461;52.356;10.704;2023-06-10T01:00:16;15.00;99.90
13742;DHT22;8461;52.356;10.704;2023-06-10T01:02:42;14.90;99.90
13742;DHT22;8461;52.356;10.704;2023-06-10T01:05:08;14.90;99.90
13742;DHT22;8461;52.356;10.704;2023-06-10T01:07:49;15.00;99.90
13742;DHT22;8461;52.356;10.704;2023-06-10T01:13:05;14.90;99.90
13742;DHT22;8461;52.356;10.704;2023-06-10T01:15:34;15.00;99.90
13742;DHT22;8461;52.356;10.704;2023-06-10T01:18:05;14.80;99.90
13742;DHT22;8461;52.356;10.704;2023-06-10T01:20:34;14.80;99.90
13742;DHT22;8461;52.356;10.704;2023-06-10T01:23:02;14.70;99.90
13742;DHT22;8461;52.356;10.704;2023-06-10T01:25:29;14.90;99.90
13742;DHT22;8461;52.356;10.704;2023-06-10T01:28:12;14.50;99.90
13742;DHT22;8461;52.356;10.704;2023-06-10T01:33:52;14.40;99.90
13742;DHT22;8461;52.356;10.704;2023-06-10T01:36:18;14.30;99.90
13742;DHT22;8461;52.356;10.704;2023-06-10T01:38:46;14.30;99.90
13742;DHT22;8461;52.356;10.704;2023-06-10T01:41:14;14.30;99.90
13742;DHT22;8461;52.356;10.704;2023-06-10T01:43:43;14.30;99.90
13742;DHT22;8461;52.356;10.704;2023-06-10T01:46:08;14.20;99.90
13742;DHT22;8461;52.356;10.704;2023-06-10T01:48:34;12.40;99.90
13742;DHT22;8461;52.356;10.704;2023-06-10T01:51:00;13.90;99.90
13742;DHT22;8461;52.356;10.704;2023-06-10T01:53:25;14.00;99.90
13742;DHT22;8461;52.356;10.704;2023-06-10T01:55:51;14.00;99.90
13742;DHT22;8461;52.356;10.704;2023-06-10T01:58:16;14.00;99.90
13742;DHT22;8461;52.356;10.704;2023-06-10T02:00:42;14.00;99.90
13742;DHT22;8461;52.356;10.704;2023-06-10T02:03:07;14.00;99.90
13742;DHT22;8461;52.356;10.704;2023-06-10T02:05:33;14.00;99.90
13742;DHT22;8461;52.356;10.704;2023-06-10T02:07:59;14.00;99.90
13742;DHT22;8461;52.356;10.704;2023-06-10T02:10:24;13.90;99.90
13742;DHT22;8461;52.356;10.704;2023-06-10T02:12:50;13.90;99.90
13742;DHT22;8461;52.356;10.704;2023-06-10T02:15:16;13.90;99.90
13742;DHT22;8461;52.356;10.704;2023-06-10T02:17:41;13.90;99.90
13742;DHT22;8461;52.356;10.704;2023-06-10T02:22:37;13.80;99.90
13742;DHT22;8461;52.356;10.704;2023-06-10T02:25:03;13.80;99.90
13742;DHT22;8461;52.356;10.704;2023-06-10T02:27:29;13.80;99.90
13742;DHT22;8461;52.356;10.704;2023-06-10T02:29:56;13.60;99.90
13742;DHT22;8461;52.356;10.704;2023-06-10T02:32:21;13.60;99.90
13742;DHT22;8461;52.356;10.704;2023-06-10T02:34:47;13.50;99.90
13742;DHT22;8461;52.356;10.704;2023-06-10T02:37:14;13.50;99.90
13742;DHT22;8461;52.356;10.704;2023-06-10T02:39:40;13.50;99.90
13742;DHT22;8461;52.356;10.704;2023-06-10T02:42:06;13.50;99.90
13742;DHT22;8461;52.356;10.704;2023-06-10T02:44:32;13.50;99.90
13742;DHT22;8461;52.356;10.704;2023-06-10T02:46:57;13.40;99.90
13742;DHT22;8461;52.356;10.704;2023-06-10T02:49:23;13.40;99.90
13742;DHT22;8461;52.356;10.704;2023-06-10T02:51:50;13.50;99.90
13742;DHT22;8461;52.356;10.704;2023-06-10T02:54:19;13.40;99.90
13742;DHT22;8461;52.356;10.704;2023-06-10T02:56:45;13.40;99.90
13742;DHT22;8461;52.356;10.704;2023-06-10T02:59:11;13.30;99.90
13742;DHT22;8461;52.356;10.704;2023-06-10T03:01:36;13.40;99.90
13742;DHT22;8461;52.356;10.704;2023-06-10T03:04:04;13.40;99.90
13742;DHT22;8461;52.356;10.704;2023-06-10T03:06:30;13.30;99.90
13742;DHT22;8461;52.356;10.704;2023-06-10T03:08:55;13.10;99.90
13742;DHT22;8461;52.356;10.704;2023-06-10T03:11:21;13.30;99.90
13742;DHT22;8461;52.356;10.704;2023-06-10T03:13:46;13.30;99.90
13742;DHT22;8461;52.356;10.704;2023-06-10T03:16:12;13.30;99.90
13742;DHT22;8461;52.356;10.704;2023-06-10T03:18:38;13.30;99.90
13742;DHT22;8461;52.356;10.704;2023-06-10T03:21:03;13.30;99.90
13742;DHT22;8461;52.356;10.704;2023-06-10T03:23:29;13.20;99.90
13742;DHT22;8461;52.356;10.704;2023-06-10T03:25:54;13.30;99.90
13742;DHT22;8461;52.356;10.704;2023-06-10T03:28:20;13.20;99.90
13742;DHT22;8461;52.356;10.704;2023-06-10T03:30:47;13.10;99.90
13742;DHT22;8461;52.356;10.704;2023-06-10T03:33:13;13.10;99.90
13742;DHT22;8461;52.356;10.704;2023-06-10T03:35:39;13.20;99.90
13742;DHT22;8461;52.356;10.704;2023-06-10T03:38:05;13.20;99.90
13742;DHT22;8461;52.356;10.704;2023-06-10T03:40:30;13.10;99.90
13742;DHT22;8461;52.356;10.704;2023-06-10T03:42:57;13.10;99.90
13742;DHT22;8461;52.356;10.704;2023-06-10T03:45:22;13.00;99.90
13742;DHT22;8461;52.356;10.704;2023-06-10T03:47:49;13.30;99.90
13742;DHT22;8461;52.356;10.704;2023-06-10T03:50:16;12.40;99.90
13742;DHT22;8461;52.356;10.704;2023-06-10T03:52:41;13.30;99.90
13742;DHT22;8461;52.356;10.704;2023-06-10T03:57:33;13.40;99.90
13742;DHT22;8461;52.356;10.704;2023-06-10T03:59:58;13.30;99.90
13742;DHT22;8461;52.356;10.704;2023-06-10T04:02:24;13.40;99.90
13742;DHT22;8461;52.356;10.704;2023-06-10T04:04:50;13.30;99.90
13742;DHT22;8461;52.356;10.704;2023-06-10T04:07:16;13.40;99.90
13742;DHT22;8461;52.356;10.704;2023-06-10T04:12:08;13.50;99.90
13742;DHT22;8461;52.356;10.704;2023-06-10T04:14:35;13.60;99.90
13742;DHT22;8461;52.356;10.704;2023-06-10T04:17:03;13.60;99.90
13742;DHT22;8461;52.356;10.704;2023-06-10T04:19:28;13.60;99.90
13742;DHT22;8461;52.356;10.704;2023-06-10T04:34:06;13.70;99.90
13742;DHT22;8461;52.356;10.704;2023-06-10T04:36:33;13.60;99.90
13742;DHT22;8461;52.356;10.704;2023-06-10T04:38:58;13.70;99.90
13742;DHT22;8461;52.356;10.704;2023-06-10T04:41:24;13.80;99.90
13742;DHT22;8461;52.356;10.704;2023-06-10T04:43:51;14.00;99.90
13742;DHT22;8461;52.356;10.704;2023-06-10T04:46:16;14.10;99.90
13742;DHT22;8461;52.356;10.704;2023-06-10T04:48:42;14.10;99.90
13742;DHT22;8461;52.356;10.704;2023-06-10T04:51:08;14.10;99.90
13742;DHT22;8461;52.356;10.704;2023-06-10T04:53:33;14.20;99.90
13742;DHT22;8461;52.356;10.704;2023-06-10T04:55:59;14.10;99.90
13742;DHT22;8461;52.356;10.704;2023-06-10T04:58:24;14.20;99.90
13742;DHT22;8461;52.356;10.704;2023-06-10T05:00:50;14.20;99.90
13742;DHT22;8461;52.356;10.704;2023-06-10T05:03:15;14.30;99.90
13742;DHT22;8461;52.356;10.704;2023-06-10T05:05:41;14.40;99.90
13742;DHT22;8461;52.356;10.704;2023-06-10T05:08:07;14.50;99.90
13742;DHT22;8461;52.356;10.704;2023-06-10T05:10:32;14.60;99.90
13742;DHT22;8461;52.356;10.704;2023-06-10T05:12:59;14.80;99.90
13742;DHT22;8461;52.356;10.704;2023-06-10T05:15:25;14.90;99.90
13742;DHT22;8461;52.356;10.704;2023-06-10T05:17:50;14.90;99.90
13742;DHT22;8461;52.356;10.704;2023-06-10T05:20:17;14.90;99.90
13742;DHT22;8461;52.356;10.704;2023-06-10T05:22:43;14.80;99.90
13742;DHT22;8461;52.356;10.704;2023-06-10T05:25:10;14.80;99.90
13742;DHT22;8461;52.356;10.704;2023-06-10T05:27:35;14.80;99.90
13742;DHT22;8461;52.356;10.704;2023-06-10T05:30:02;14.80;99.90
13742;DHT22;8461;52.356;10.704;2023-06-10T05:32:28;14.80;99.90
13742;DHT22;8461;52.356;10.704;2023-06-10T05:34:54;14.70;99.90
13742;DHT22;8461;52.356;10.704;2023-06-10T05:37:20;14.70;99.90
13742;DHT22;8461;52.356;10.704;2023-06-10T05:39:45;14.70;99.90
13742;DHT22;8461;52.356;10.704;2023-06-10T05:42:11;14.70;99.90
13742;DHT22;8461;52.356;10.704;2023-06-10T05:44:36;14.70;99.90
13742;DHT22;8461;52.356;10.704;2023-06-10T05:47:02;14.70;99.90
13742;DHT22;8461;52.356;10.704;2023-06-10T05:49:28;14.80;99.90
13742;DHT22;8461;52.356;10.704;2023-06-10T05:51:54;15.00;99.90
13742;DHT22;8461;52.356;10.704;2023-06-10T05:54:21;15.10;99.90
13742;DHT22;8461;52.356;10.704;2023-06-10T05:56:46;15.20;99.90
13742;DHT22;8461;52.356;10.704;2023-06-10T05:59:12;15.30;99.90
13742;DHT22;8461;52.356;10.704;2023-06-10T06:01:38;15.10;99.90
13742;DHT22;8461;52.356;10.704;2023-06-10T06:04:03;15.40;99.90
13742;DHT22;8461;52.356;10.704;2023-06-10T06:06:29;15.60;99.90
13742;DHT22;8461;52.356;10.704;2023-06-10T06:08:54;15.80;99.90
13742;DHT22;8461;52.356;10.704;2023-06-10T06:11:20;15.90;99.90
13742;DHT22;8461;52.356;10.704;2023-06-10T06:13:45;16.00;99.90
13742;DHT22;8461;52.356;10.704;2023-06-10T06:16:13;15.80;99.90
13742;DHT22;8461;52.356;10.704;2023-06-10T06:18:39;15.90;99.90
13742;DHT22;8461;52.356;10.704;2023-06-10T06:21:04;16.00;99.90
13742;DHT22;8461;52.356;10.704;2023-06-10T06:23:30;16.20;99.90
13742;DHT22;8461;52.356;10.704;2023-06-10T06:25:55;16.10;99.90
13742;DHT22;8461;52.356;10.704;2023-06-10T06:28:21;16.00;99.90
13742;DHT22;8461;52.356;10.704;2023-06-10T06:30:47;16.10;99.90
13742;DHT22;8461;52.356;10.704;2023-06-10T06:33:13;16.20;99.90
13742;DHT22;8461;52.356;10.704;2023-06-10T06:35:39;16.30;99.90
13742;DHT22;8461;52.356;10.704;2023-06-10T06:38:05;16.30;99.90
13742;DHT22;8461;52.356;10.704;2023-06-10T06:40:31;16.40;99.90
13742;DHT22;8461;52.356;10.704;2023-06-10T06:42:56;16.40;99.90
13742;DHT22;8461;52.356;10.704;2023-06-10T06:45:22;16.50;99.90
13742;DHT22;8461;52.356;10.704;2023-06-10T06:47:47;16.60;99.90
13742;DHT22;8461;52.356;10.704;2023-06-10T06:50:13;16.60;99.90
13742;DHT22;8461;52.356;10.704;2023-06-10T06:52:39;16.80;99.90
13742;DHT22;8461;52.356;10.704;2023-06-10T06:55:05;16.80;99.90
13742;DHT22;8461;52.356;10.704;2023-06-10T06:57:30;16.80;99.90
13742;DHT22;8461;52.356;10.704;2023-06-10T06:59:56;16.90;99.90
13742;DHT22;8461;52.356;10.704;2023-06-10T07:02:21;16.90;99.90
13742;DHT22;8461;52.356;10.704;2023-06-10T07:04:47;17.00;99.90
13742;DHT22;8461;52.356;10.704;2023-06-10T07:07:15;17.00;99.90
13742;DHT22;8461;52.356;10.704;2023-06-10T07:09:40;17.10;99.90
13742;DHT22;8461;52.356;10.704;2023-06-10T07:12:06;17.10;99.90
13742;DHT22;8461;52.356;10.704;2023-06-10T07:14:32;17.30;99.90
13742;DHT22;8461;52.356;10.704;2023-06-10T07:16:57;17.40;99.90
13742;DHT22;8461;52.356;10.704;2023-06-10T07:19:23;17.40;99.90
13742;DHT22;8461;52.356;10.704;2023-06-10T07:21:48;17.50;99.90
13742;DHT22;8461;52.356;10.704;2023-06-10T07:24:14;17.60;99.90
13742;DHT22;8461;52.356;10.704;2023-06-10T07:26:40;17.70;99.90
13742;DHT22;8461;52.356;10.704;2023-06-10T07:29:05;17.80;99.90
13742;DHT22;8461;52.356;10.704;2023-06-10T07:31:31;17.80;99.90
13742;DHT22;8461;52.356;10.704;2023-06-10T07:33:56;17.80;99.90
13742;DHT22;8461;52.356;10.704;2023-06-10T07:36:22;17.90;99.90
13742;DHT22;8461;52.356;10.704;2023-06-10T07:38:48;17.90;99.90
13742;DHT22;8461;52.356;10.704;2023-06-10T07:41:14;18.00;99.90
13742;DHT22;8461;52.356;10.704;2023-06-10T07:43:41;18.00;99.90
13742;DHT22;8461;52.356;10.704;2023-06-10T07:46:07;17.90;99.90
13742;DHT22;8461;52.356;10.704;2023-06-10T07:48:32;18.00;99.90
13742;DHT22;8461;52.356;10.704;2023-06-10T07:50:58;18.00;99.90
13742;DHT22;8461;52.356;10.704;2023-06-10T07:53:24;18.00;99.90
13742;DHT22;8461;52.356;10.704;2023-06-10T07:55:49;18.10;99.90
13742;DHT22;8461;52.356;10.704;2023-06-10T07:58:15;18.20;99.90
13742;DHT22;8461;52.356;10.704;2023-06-10T08:00:40;18.30;99.90
13742;DHT22;8461;52.356;10.704;2023-06-10T08:03:07;18.20;99.90
13742;DHT22;8461;52.356;10.704;2023-06-10T08:05:32;18.50;99.90
13742;DHT22;8461;52.356;10.704;2023-06-10T08:07:58;18.70;99.90
13742;DHT22;8461;52.356;10.704;2023-06-10T08:10:24;18.90;99.90
13742;DHT22;8461;52.356;10.704;2023-06-10T08:12:49;18.90;99.90
13742;DHT22;8461;52.356;10.704;2023-06-10T08:15:15;19.00;99.90
13742;DHT22;8461;52.356;10.704;2023-06-10T08:17:40;19.00;99.90
13742;DHT22;8461;52.356;10.704;2023-06-10T08:20:06;19.10;99.90
13742;DHT22;8461;52.356;10.704;2023-06-10T08:22:32;19.20;99.90
13742;DHT22;8461;52.356;10.704;2023-06-10T08:24:59;19.30;99.90
13742;DHT22;8461;52.356;10.704;2023-06-10T08:27:24;19.40;99.90
13742;DHT22;8461;52.356;10.704;2023-06-10T08:29:50;19.50;99.90
13742;DHT22;8461;52.356;10.704;2023-06-10T08:32:16;19.60;99.90
13742;DHT22;8461;52.356;10.704;2023-06-10T08:34:41;19.50;99.90
13742;DHT22;8461;52.356;10.704;2023-06-10T08:37:07;19.60;99.90
13742;DHT22;8461;52.356;10.704;2023-06-10T08:39:32;19.70;99.90
13742;DHT22;8461;52.356;10.704;2023-06-10T08:42:10;19.90;99.90
13742;DHT22;8461;52.356;10.704;2023-06-10T08:44:36;20.10;99.90
13742;DHT22;8461;52.356;10.704;2023-06-10T08:47:18;20.30;99.90
13742;DHT22;8461;52.356;10.704;2023-06-10T08:49:46;20.40;99.90
13742;DHT22;8461;52.356;10.704;2023-06-10T08:52:19;20.50;99.90
13742;DHT22;8461;52.356;10.704;2023-06-10T08:54:59;20.50;99.90
13742;DHT22;8461;52.356;10.704;2023-06-10T08:57:28;20.60;99.90
13742;DHT22;8461;52.356;10.704;2023-06-10T08:59:56;20.60;99.90
13742;DHT22;8461;52.356;10.704;2023-06-10T09:02:22;20.70;99.90
13742;DHT22;8461;52.356;10.704;2023-06-10T09:04:49;20.80;99.90
13742;DHT22;8461;52.356;10.704;2023-06-10T09:07:16;20.90;99.90
13742;DHT22;8461;52.356;10.704;2023-06-10T09:09:45;20.90;99.90
13742;DHT22;8461;52.356;10.704;2023-06-10T09:12:13;21.00;99.90
13742;DHT22;8461;52.356;10.704;2023-06-10T09:14:38;21.00;99.90
13742;DHT22;8461;52.356;10.704;2023-06-10T09:17:05;20.90;99.90
13742;DHT22;8461;52.356;10.704;2023-06-10T09:19:31;21.10;99.90
13742;DHT22;8461;52.356;10.704;2023-06-10T09:21:58;21.10;99.90
13742;DHT22;8461;52.356;10.704;2023-06-10T09:24:24;20.90;99.90
13742;DHT22;8461;52.356;10.704;2023-06-10T09:26:50;21.10;99.90
13742;DHT22;8461;52.356;10.704;2023-06-10T09:31:52;21.30;99.90
13742;DHT22;8461;52.356;10.704;2023-06-10T09:34:18;21.50;99.90
13742;DHT22;8461;52.356;10.704;2023-06-10T09:36:44;21.70;99.90
13742;DHT22;8461;52.356;10.704;2023-06-10T09:39:15;21.90;99.90
13742;DHT22;8461;52.356;10.704;2023-06-10T09:41:42;21.90;99.90
13742;DHT22;8461;52.356;10.704;2023-06-10T09:44:15;21.90;99.90
13742;DHT22;8461;52.356;10.704;2023-06-10T09:46:42;22.10;99.90
13742;DHT22;8461;52.356;10.704;2023-06-10T09:49:08;22.20;99.90
13742;DHT22;8461;52.356;10.704;2023-06-10T09:51:34;22.30;99.90
13742;DHT22;8461;52.356;10.704;2023-06-10T09:54:02;22.40;99.90
13742;DHT22;8461;52.356;10.704;2023-06-10T09:56:35;22.50;99.90
13742;DHT22;8461;52.356;10.704;2023-06-10T09:59:01;22.60;99.90
13742;DHT22;8461;52.356;10.704;2023-06-10T10:01:28;22.70;99.90
13742;DHT22;8461;52.356;10.704;2023-06-10T10:03:53;22.80;99.90
13742;DHT22;8461;52.356;10.704;2023-06-10T10:06:20;22.90;99.90
13742;DHT22;8461;52.356;10.704;2023-06-10T10:08:47;22.80;99.90
13742;DHT22;8461;52.356;10.704;2023-06-10T10:11:16;23.00;99.90
13742;DHT22;8461;52.356;10.704;2023-06-10T10:13:42;23.10;99.90
13742;DHT22;8461;52.356;10.704;2023-06-10T10:16:12;23.30;99.90
13742;DHT22;8461;52.356;10.704;2023-06-10T10:18:45;23.50;99.90
13742;DHT22;8461;52.356;10.704;2023-06-10T10:21:13;23.60;99.90
13742;DHT22;8461;52.356;10.704;2023-06-10T10:23:48;23.70;99.90
13742;DHT22;8461;52.356;10.704;2023-06-10T10:26:17;23.70;99.90
13742;DHT22;8461;52.356;10.704;2023-06-10T10:31:33;23.70;99.90
13742;DHT22;8461;52.356;10.704;2023-06-10T10:34:04;23.90;99.90
13742;DHT22;8461;52.356;10.704;2023-06-10T10:36:30;24.00;99.90
13742;DHT22;8461;52.356;10.704;2023-06-10T10:38:57;24.10;99.90
13742;DHT22;8461;52.356;10.704;2023-06-10T10:41:24;24.10;99.90
13742;DHT22;8461;52.356;10.704;2023-06-10T10:43:52;24.10;99.90
13742;DHT22;8461;52.356;10.704;2023-06-10T10:48:46;24.40;99.90
13742;DHT22;8461;52.356;10.704;2023-06-10T10:51:16;24.60;99.90
13742;DHT22;8461;52.356;10.704;2023-06-10T10:53:41;24.70;99.90
13742;DHT22;8461;52.356;10.704;2023-06-10T10:56:14;24.80;99.90
13742;DHT22;8461;52.356;10.704;2023-06-10T10:58:40;24.60;99.90
13742;DHT22;8461;52.356;10.704;2023-06-10T11:01:13;24.60;99.90
13742;DHT22;8461;52.356;10.704;2023-06-10T11:03:46;24.50;99.90
13742;DHT22;8461;52.356;10.704;2023-06-10T11:06:17;24.70;99.90
13742;DHT22;8461;52.356;10.704;2023-06-10T11:11:25;24.90;99.90
13742;DHT22;8461;52.356;10.704;2023-06-10T11:16:28;25.30;99.90
13742;DHT22;8461;52.356;10.704;2023-06-10T11:18:54;25.30;99.90
13742;DHT22;8461;52.356;10.704;2023-06-10T11:21:20;25.40;99.90
13742;DHT22;8461;52.356;10.704;2023-06-10T11:23:46;25.50;99.90
13742;DHT22;8461;52.356;10.704;2023-06-10T11:26:29;25.50;99.90
13742;DHT22;8461;52.356;10.704;2023-06-10T11:34:01;26.00;99.90
13742;DHT22;8461;52.356;10.704;2023-06-10T11:36:29;26.00;99.90
13742;DHT22;8461;52.356;10.704;2023-06-10T11:38:59;26.20;99.90
13742;DHT22;8461;52.356;10.704;2023-06-10T11:41:26;26.30;99.90
13742;DHT22;8461;52.356;10.704;2023-06-10T11:44:02;26.40;99.90
13742;DHT22;8461;52.356;10.704;2023-06-10T11:46:28;26.40;99.90
13742;DHT22;8461;52.356;10.704;2023-06-10T11:48:56;26.50;99.90
13742;DHT22;8461;52.356;10.704;2023-06-10T11:51:25;26.70;99.90
13742;DHT22;8461;52.356;10.704;2023-06-10T11:53:50;26.90;99.90
13742;DHT22;8461;52.356;10.704;2023-06-10T11:56:21;27.10;99.90
13742;DHT22;8461;52.356;10.704;2023-06-10T11:58:52;27.20;99.90
13742;DHT22;8461;52.356;10.704;2023-06-10T12:01:23;27.10;99.90
13742;DHT22;8461;52.356;10.704;2023-06-10T12:04:08;27.40;99.90
13742;DHT22;8461;52.356;10.704;2023-06-10T12:06:45;27.50;99.90
13742;DHT22;8461;52.356;10.704;2023-06-10T12:09:20;27.60;99.90
13742;DHT22;8461;52.356;10.704;2023-06-10T12:11:49;27.50;99.90
13742;DHT22;8461;52.356;10.704;2023-06-10T12:14:15;27.60;99.90
13742;DHT22;8461;52.356;10.704;2023-06-10T12:16:48;27.60;99.90
13742;DHT22;8461;52.356;10.704;2023-06-10T12:19:14;27.90;99.90
13742;DHT22;8461;52.356;10.704;2023-06-10T12:21:39;28.30;99.90
13742;DHT22;8461;52.356;10.704;2023-06-10T12:24:09;28.70;99.90
13742;DHT22;8461;52.356;10.704;2023-06-10T12:26:42;29.10;99.90
13742;DHT22;8461;52.356;10.704;2023-06-10T12:34:37;30.30;99.90
13742;DHT22;8461;52.356;10.704;2023-06-10T12:41:57;31.40;99.90
13742;DHT22;8461;52.356;10.704;2023-06-10T12:49:27;31.10;99.90
13742;DHT22;8461;52.356;10.704;2023-06-10T12:51:53;31.40;99.90
13742;DHT22;8461;52.356;10.704;2023-06-10T12:54:19;31.40;99.90
13742;DHT22;8461;52.356;10.704;2023-06-10T12:56:44;31.60;99.90
13742;DHT22;8461;52.356;10.704;2023-06-10T12:59:10;32.00;99.90
13742;DHT22;8461;52.356;10.704;2023-06-10T13:01:37;31.60;99.90
13742;DHT22;8461;52.356;10.704;2023-06-10T13:04:05;31.20;99.90
13742;DHT22;8461;52.356;10.704;2023-06-10T13:06:31;31.50;99.90
13742;DHT22;8461;52.356;10.704;2023-06-10T13:09:01;31.20;99.90
13742;DHT22;8461;52.356;10.704;2023-06-10T13:28:33;31.20;99.90
